Time;durP1;ratioP1;P1;durP2;ratioP2;P2;SDS_P1;SDS_P2;PMS_P1;PMS_P2;Temp;Humidity;BMP_temperature;BMP_pressure;BME280_temperature;BME280_humidity;BME280_pressure;Samples;Min_cycle;Max_cycle;Signal;HPM_P1;HPM_P2
2022/07/16 00:02:13;;;;;;;3.50;1.90;;;13.40;99.90;;;;;;5063810;28;20275;-74
2022/07/16 00:04:41;;;;;;;5.73;2.00;;;13.50;99.90;;;;;;5025981;28;20230;-76
2022/07/16 00:07:08;;;;;;;6.13;2.00;;;13.40;99.90;;;;;;5029068;28;20195;-75
2022/07/16 00:09:35;;;;;;;5.87;1.93;;;13.40;99.90;;;;;;5026626;28;20206;-76
2022/07/16 00:12:03;;;;;;;5.23;2.00;;;13.40;99.90;;;;;;5027326;28;20199;-75
2022/07/16 00:14:30;;;;;;;4.40;2.10;;;13.40;99.90;;;;;;5028465;28;20216;-76
2022/07/16 00:16:57;;;;;;;3.13;1.63;;;13.30;99.90;;;;;;5024883;28;20184;-75
2022/07/16 00:19:24;;;;;;;7.13;1.83;;;13.30;99.90;;;;;;5026863;28;20684;-74
2022/07/16 00:21:54;;;;;;;6.93;2.17;;;13.30;99.90;;;;;;5025909;28;20559;-75
2022/07/16 00:24:23;;;;;;;9.43;2.13;;;13.30;99.90;;;;;;5065651;28;20230;-75
2022/07/16 00:26:50;;;;;;;4.00;2.00;;;13.30;99.90;;;;;;5025723;28;20698;-76
2022/07/16 00:29:19;;;;;;;4.43;2.00;;;13.30;99.90;;;;;;5024675;28;20238;-76
2022/07/16 00:31:48;;;;;;;4.17;1.93;;;13.30;99.90;;;;;;5025481;28;20188;-75
2022/07/16 00:34:16;;;;;;;2.87;1.93;;;13.30;99.90;;;;;;5063193;28;20210;-77
2022/07/16 00:36:43;;;;;;;12.97;2.43;;;13.20;99.90;;;;;;5026096;28;20270;-76
2022/07/16 00:39:11;;;;;;;4.17;2.17;;;13.20;99.90;;;;;;5028558;28;20314;-76
2022/07/16 00:41:40;;;;;;;9.30;2.60;;;13.30;99.90;;;;;;5026503;28;20269;-76
2022/07/16 00:44:14;;;;;;;4.73;1.93;;;13.20;99.90;;;;;;5025749;28;20211;-76
2022/07/16 00:46:42;;;;;;;3.87;2.20;;;13.20;99.90;;;;;;5033360;28;20199;-76
2022/07/16 00:49:10;;;;;;;4.70;1.80;;;13.20;99.90;;;;;;5033687;28;20283;-74
2022/07/16 00:51:45;;;;;;;5.50;1.83;;;13.20;99.90;;;;;;5026644;28;20564;-75
2022/07/16 00:54:13;;;;;;;4.27;1.70;;;13.20;99.90;;;;;;5055956;28;20199;-75
2022/07/16 00:56:40;;;;;;;4.93;1.90;;;13.30;99.90;;;;;;5029358;28;20243;-74
2022/07/16 00:59:08;;;;;;;4.73;1.97;;;13.30;99.90;;;;;;5028659;28;20577;-75
2022/07/16 01:01:36;;;;;;;4.77;2.00;;;13.30;99.90;;;;;;5029081;28;20238;-74
2022/07/16 01:04:04;;;;;;;5.37;2.10;;;13.30;99.90;;;;;;5027296;28;20271;-75
2022/07/16 01:06:32;;;;;;;3.50;1.67;;;13.40;99.90;;;;;;5025350;28;20202;-74
2022/07/16 01:08:59;;;;;;;4.50;2.00;;;13.40;99.90;;;;;;5046888;28;20219;-74
2022/07/16 01:11:27;;;;;;;4.60;1.93;;;13.40;99.90;;;;;;5028985;28;20613;-74
2022/07/16 01:13:53;;;;;;;6.13;2.63;;;13.40;99.90;;;;;;5026617;28;20295;-74
2022/07/16 01:16:21;;;;;;;5.10;2.10;;;13.50;99.90;;;;;;5025698;28;20669;-74
2022/07/16 01:18:49;;;;;;;3.53;1.87;;;13.50;99.90;;;;;;5025471;28;20224;-74
2022/07/16 01:21:16;;;;;;;4.53;2.30;;;13.50;99.90;;;;;;5024891;28;20242;-74
2022/07/16 01:23:45;;;;;;;4.60;2.40;;;13.50;99.90;;;;;;5023291;28;20198;-75
2022/07/16 01:26:13;;;;;;;4.93;2.20;;;13.60;99.90;;;;;;5028415;28;20241;-74
2022/07/16 01:28:40;;;;;;;4.97;1.90;;;13.60;99.90;;;;;;5063609;28;20219;-76
2022/07/16 01:31:10;;;;;;;5.40;2.03;;;13.60;99.90;;;;;;5025996;28;20200;-76
2022/07/16 01:33:39;;;;;;;8.53;2.53;;;13.60;99.90;;;;;;5065012;28;20253;-75
2022/07/16 01:36:14;;;;;;;7.10;2.13;;;13.60;99.90;;;;;;5065060;28;20298;-75
2022/07/16 01:38:44;;;;;;;2.87;1.80;;;13.60;99.90;;;;;;5031326;28;20651;-75
2022/07/16 01:41:13;;;;;;;5.47;2.20;;;13.70;99.90;;;;;;5031553;28;20284;-75
2022/07/16 01:43:40;;;;;;;6.03;1.97;;;13.70;99.90;;;;;;5031669;28;20195;-75
2022/07/16 01:46:08;;;;;;;4.37;2.10;;;13.70;99.90;;;;;;5032987;28;20204;-75
2022/07/16 01:48:35;;;;;;;3.93;2.00;;;13.70;99.90;;;;;;5064845;28;20297;-75
2022/07/16 01:51:02;;;;;;;5.83;1.93;;;13.70;99.90;;;;;;5032896;28;20237;-75
2022/07/16 01:53:29;;;;;;;5.23;2.00;;;13.70;99.90;;;;;;5034614;28;20231;-75
2022/07/16 01:55:58;;;;;;;6.67;2.30;;;13.60;99.90;;;;;;5068632;28;20593;-76
2022/07/16 01:58:26;;;;;;;6.03;2.03;;;13.60;99.90;;;;;;5034631;28;20316;-75
2022/07/16 02:00:54;;;;;;;5.33;1.87;;;13.70;99.90;;;;;;5068167;28;20282;-75
2022/07/16 02:03:21;;;;;;;3.23;1.80;;;13.80;99.90;;;;;;5034713;28;20199;-75
2022/07/16 02:05:49;;;;;;;10.73;2.73;;;13.70;99.90;;;;;;5068050;28;20710;-75
2022/07/16 02:08:16;;;;;;;5.97;2.10;;;13.80;99.90;;;;;;5067985;28;20195;-75
2022/07/16 02:10:43;;;;;;;3.53;1.70;;;13.70;99.90;;;;;;5034661;28;20213;-74
2022/07/16 02:13:10;;;;;;;4.87;1.83;;;13.70;99.90;;;;;;5034641;28;20652;-75
2022/07/16 02:15:37;;;;;;;4.80;2.00;;;13.70;99.90;;;;;;5034668;28;20241;-75
2022/07/16 02:18:04;;;;;;;5.60;1.93;;;13.70;99.90;;;;;;5077565;28;20194;-75
2022/07/16 02:20:31;;;;;;;3.80;1.90;;;13.70;99.90;;;;;;5054412;28;20209;-75
2022/07/16 02:22:58;;;;;;;4.60;1.70;;;13.60;99.90;;;;;;5054122;28;20225;-74
2022/07/16 02:25:25;;;;;;;5.00;1.97;;;13.60;99.90;;;;;;5054774;28;20293;-74
2022/07/16 02:28:07;;;;;;;8.97;1.73;;;13.60;99.90;;;;;;5034082;28;20298;-75
2022/07/16 02:30:37;;;;;;;5.30;1.90;;;13.60;99.90;;;;;;5034180;28;20231;-75
2022/07/16 02:33:05;;;;;;;6.40;2.00;;;13.70;99.90;;;;;;5067602;28;20202;-75
2022/07/16 02:35:32;;;;;;;5.00;2.23;;;13.70;99.90;;;;;;5067649;28;20206;-75
2022/07/16 02:37:59;;;;;;;3.83;1.80;;;13.70;99.90;;;;;;5034363;28;20283;-75
2022/07/16 02:40:27;;;;;;;5.17;1.90;;;13.80;99.90;;;;;;5034170;28;20293;-75
2022/07/16 02:42:54;;;;;;;4.63;2.20;;;13.70;99.90;;;;;;5067471;28;20203;-74
2022/07/16 02:45:22;;;;;;;5.20;2.10;;;13.70;99.90;;;;;;5034207;28;20227;-75
2022/07/16 02:47:48;;;;;;;9.50;2.30;;;13.70;99.90;;;;;;5034241;28;20213;-75
2022/07/16 02:50:16;;;;;;;4.30;1.80;;;13.70;99.90;;;;;;5035083;28;20196;-75
2022/07/16 02:52:43;;;;;;;5.17;1.83;;;13.70;99.90;;;;;;5034103;28;20205;-76
2022/07/16 02:55:10;;;;;;;5.60;1.97;;;13.70;99.90;;;;;;5034624;28;20199;-76
2022/07/16 02:57:37;;;;;;;5.63;1.80;;;13.70;99.90;;;;;;5034019;28;20207;-76
2022/07/16 03:00:07;;;;;;;5.37;1.93;;;13.70;99.90;;;;;;5067360;28;20237;-76
2022/07/16 03:02:34;;;;;;;7.00;1.93;;;13.70;99.90;;;;;;5032914;28;20199;-76
2022/07/16 03:05:01;;;;;;;3.03;1.80;;;13.70;99.90;;;;;;5033708;28;20203;-76
2022/07/16 03:07:28;;;;;;;5.57;2.10;;;13.60;99.90;;;;;;5033723;28;20207;-76
2022/07/16 03:09:55;;;;;;;3.97;1.90;;;13.60;99.90;;;;;;5033597;28;20640;-76
2022/07/16 03:12:22;;;;;;;8.53;2.17;;;13.70;99.90;;;;;;5033879;28;20210;-76
2022/07/16 03:14:49;;;;;;;8.13;2.30;;;13.70;99.90;;;;;;5066760;28;20229;-76
2022/07/16 03:17:16;;;;;;;5.97;2.00;;;13.70;99.90;;;;;;5033782;28;20201;-75
2022/07/16 03:19:43;;;;;;;5.63;1.90;;;13.70;99.90;;;;;;5033532;28;20304;-75
2022/07/16 03:22:10;;;;;;;8.93;2.30;;;13.70;99.90;;;;;;5033235;28;20749;-76
2022/07/16 03:24:37;;;;;;;5.63;1.87;;;13.80;99.90;;;;;;5033541;28;20234;-75
2022/07/16 03:27:04;;;;;;;4.37;2.00;;;13.80;99.90;;;;;;5033739;28;20202;-75
2022/07/16 03:29:30;;;;;;;4.33;1.77;;;13.80;99.90;;;;;;5066300;28;20235;-75
2022/07/16 03:31:57;;;;;;;5.87;2.10;;;13.80;99.90;;;;;;5033094;28;20200;-74
2022/07/16 03:34:24;;;;;;;4.70;2.10;;;13.80;99.90;;;;;;5033294;28;20723;-75
2022/07/16 03:36:51;;;;;;;4.43;1.77;;;13.80;99.90;;;;;;5033199;28;20199;-75
2022/07/16 03:39:18;;;;;;;5.80;2.00;;;13.80;99.90;;;;;;5033008;28;20216;-75
2022/07/16 03:41:45;;;;;;;5.47;1.70;;;13.90;99.90;;;;;;5034278;28;20649;-76
2022/07/16 03:44:12;;;;;;;5.27;2.20;;;13.90;99.90;;;;;;5033044;28;20664;-75
2022/07/16 03:46:40;;;;;;;3.63;1.60;;;13.90;99.90;;;;;;5032963;28;20202;-75
2022/07/16 03:49:07;;;;;;;5.63;1.70;;;13.80;99.90;;;;;;5066107;28;20197;-76
2022/07/16 03:51:35;;;;;;;4.47;1.90;;;13.90;99.90;;;;;;5065757;28;20243;-74
2022/07/16 03:54:05;;;;;;;5.93;2.00;;;13.90;99.90;;;;;;5032811;28;20202;-75
2022/07/16 03:56:32;;;;;;;6.10;2.00;;;13.90;99.90;;;;;;5032797;28;20664;-74
2022/07/16 03:58:59;;;;;;;4.20;2.00;;;13.90;99.90;;;;;;5034385;28;20567;-75
2022/07/16 04:01:26;;;;;;;5.00;1.90;;;13.80;99.90;;;;;;5032365;28;20294;-75
2022/07/16 04:03:53;;;;;;;6.30;1.70;;;13.90;99.90;;;;;;5032772;28;20195;-76
2022/07/16 04:06:21;;;;;;;4.60;1.90;;;14.00;99.90;;;;;;5033791;28;20183;-76
2022/07/16 04:08:48;;;;;;;3.73;1.83;;;14.00;99.90;;;;;;5032706;28;20203;-76
2022/07/16 04:11:15;;;;;;;5.17;1.70;;;14.00;99.90;;;;;;5033618;28;20282;-76
2022/07/16 04:13:43;;;;;;;5.47;1.80;;;14.10;99.90;;;;;;5033189;28;20208;-76
2022/07/16 04:16:11;;;;;;;6.23;1.90;;;14.00;99.90;;;;;;5033085;28;20526;-75
2022/07/16 04:18:39;;;;;;;6.43;1.80;;;14.10;99.90;;;;;;5033860;28;20221;-74
2022/07/16 04:21:09;;;;;;;7.50;1.83;;;14.10;99.90;;;;;;5032227;28;20652;-76
2022/07/16 04:23:36;;;;;;;7.47;2.00;;;14.10;99.90;;;;;;5033456;28;20187;-76
2022/07/16 04:26:03;;;;;;;4.53;1.60;;;14.10;99.90;;;;;;5032303;28;20337;-76
2022/07/16 04:28:30;;;;;;;5.53;2.10;;;14.10;99.90;;;;;;5031854;28;20223;-76
2022/07/16 04:30:57;;;;;;;8.53;2.07;;;14.20;99.90;;;;;;5032225;28;20213;-76
2022/07/16 04:33:25;;;;;;;4.97;1.70;;;14.10;99.90;;;;;;5032353;28;20221;-76
2022/07/16 04:35:52;;;;;;;7.77;2.20;;;14.00;99.90;;;;;;5032314;28;20210;-77
2022/07/16 04:38:19;;;;;;;3.17;1.70;;;14.10;99.90;;;;;;5032299;28;20597;-76
2022/07/16 04:40:46;;;;;;;5.57;1.90;;;14.10;99.90;;;;;;5031947;28;20233;-76
2022/07/16 04:43:13;;;;;;;3.10;1.60;;;14.20;99.90;;;;;;5032150;28;20245;-76
2022/07/16 04:45:40;;;;;;;6.43;1.77;;;14.20;99.90;;;;;;5031949;28;20286;-76
2022/07/16 04:48:06;;;;;;;3.63;1.70;;;14.20;99.90;;;;;;5032190;28;20206;-77
2022/07/16 04:50:33;;;;;;;4.40;2.00;;;14.30;99.90;;;;;;5031772;28;20195;-77
2022/07/16 04:53:00;;;;;;;4.77;1.70;;;14.30;99.90;;;;;;5031869;28;20651;-77
2022/07/16 04:55:28;;;;;;;7.83;2.10;;;14.40;99.90;;;;;;5032470;28;20296;-76
2022/07/16 04:57:55;;;;;;;6.23;1.90;;;14.30;99.90;;;;;;5032160;28;20298;-76
2022/07/16 05:00:26;;;;;;;6.93;1.70;;;14.20;99.90;;;;;;5064925;28;20219;-77
2022/07/16 05:02:56;;;;;;;5.20;1.90;;;14.10;99.90;;;;;;5065127;28;20199;-76
2022/07/16 05:05:26;;;;;;;6.60;2.27;;;14.20;99.90;;;;;;5031821;28;20199;-76
2022/07/16 05:07:53;;;;;;;5.40;1.77;;;14.30;99.90;;;;;;5065257;28;20215;-76
2022/07/16 05:10:20;;;;;;;4.63;1.80;;;14.50;99.90;;;;;;5065108;28;20210;-76
2022/07/16 05:12:48;;;;;;;5.73;1.50;;;14.50;99.90;;;;;;5031667;28;20582;-77
2022/07/16 05:15:15;;;;;;;3.47;1.70;;;14.50;99.90;;;;;;5064828;28;20705;-76
2022/07/16 05:17:42;;;;;;;6.33;1.90;;;14.60;99.90;;;;;;5031749;28;20289;-76
2022/07/16 05:20:10;;;;;;;6.53;1.87;;;14.60;99.90;;;;;;5031679;28;20265;-76
2022/07/16 05:22:36;;;;;;;5.53;1.80;;;14.60;99.90;;;;;;5031692;28;20286;-76
2022/07/16 05:25:05;;;;;;;4.67;1.50;;;14.70;99.90;;;;;;5033154;28;20294;-75
2022/07/16 05:27:33;;;;;;;6.17;1.90;;;14.70;99.90;;;;;;5035200;28;20747;-74
2022/07/16 05:30:00;;;;;;;4.40;1.70;;;14.80;99.90;;;;;;5035298;28;20251;-75
2022/07/16 05:32:27;;;;;;;7.07;2.10;;;14.70;99.90;;;;;;5068525;28;20297;-75
2022/07/16 05:34:54;;;;;;;4.93;1.70;;;14.80;99.90;;;;;;5035399;28;20303;-76
2022/07/16 05:37:21;;;;;;;6.00;1.70;;;14.70;99.90;;;;;;5035168;28;20195;-76
2022/07/16 05:39:48;;;;;;;7.70;2.13;;;14.70;99.90;;;;;;5035476;28;20226;-75
2022/07/16 05:42:15;;;;;;;5.43;1.60;;;14.80;99.90;;;;;;5035208;28;20200;-74
2022/07/16 05:44:42;;;;;;;5.57;1.67;;;14.80;99.90;;;;;;5035683;28;20279;-75
2022/07/16 05:47:08;;;;;;;7.10;1.90;;;14.80;99.90;;;;;;5035175;28;20191;-75
2022/07/16 05:49:35;;;;;;;4.03;1.90;;;14.90;99.90;;;;;;5036601;28;20227;-75
2022/07/16 05:52:08;;;;;;;8.57;2.10;;;14.90;99.90;;;;;;5036339;28;20195;-75
2022/07/16 05:54:37;;;;;;;7.53;1.73;;;14.90;99.90;;;;;;5035212;28;20297;-75
2022/07/16 05:57:03;;;;;;;5.77;1.80;;;15.00;99.90;;;;;;5036395;28;20191;-75
2022/07/16 05:59:30;;;;;;;4.53;2.00;;;15.10;99.90;;;;;;5036416;28;20305;-75
2022/07/16 06:01:57;;;;;;;4.17;1.63;;;15.10;99.90;;;;;;5034996;28;20204;-74
2022/07/16 06:04:24;;;;;;;4.17;1.77;;;15.30;99.90;;;;;;5034910;28;20286;-76
2022/07/16 06:06:51;;;;;;;4.73;1.70;;;15.30;99.90;;;;;;5035940;28;20574;-76
2022/07/16 06:09:18;;;;;;;5.00;1.80;;;15.30;99.90;;;;;;5034713;28;20298;-76
2022/07/16 06:11:46;;;;;;;5.03;1.90;;;15.50;99.90;;;;;;5034829;28;20199;-76
2022/07/16 06:14:13;;;;;;;6.57;1.97;;;15.50;99.90;;;;;;5068045;28;20203;-76
2022/07/16 06:16:40;;;;;;;4.87;1.83;;;15.60;99.90;;;;;;5035020;28;20656;-76
2022/07/16 06:19:08;;;;;;;5.57;1.83;;;15.80;99.90;;;;;;5034517;28;20310;-76
2022/07/16 06:21:35;;;;;;;5.33;2.07;;;15.90;99.90;;;;;;5067717;28;20323;-77
2022/07/16 06:24:02;;;;;;;5.77;1.80;;;16.00;99.90;;;;;;5068041;28;20202;-76
2022/07/16 06:26:29;;;;;;;6.57;1.97;;;16.10;99.90;;;;;;5034549;28;20204;-76
2022/07/16 06:28:56;;;;;;;9.20;1.83;;;16.10;99.90;;;;;;5035841;28;20285;-76
2022/07/16 06:31:23;;;;;;;6.33;2.10;;;16.20;99.90;;;;;;5034594;28;20550;-76
2022/07/16 06:33:49;;;;;;;5.33;2.20;;;16.20;99.90;;;;;;5034693;28;20199;-75
2022/07/16 06:36:16;;;;;;;5.13;1.87;;;16.20;99.90;;;;;;5034555;28;20286;-75
2022/07/16 06:38:43;;;;;;;5.43;2.10;;;16.20;99.90;;;;;;5033102;28;20242;-75
2022/07/16 06:41:10;;;;;;;7.03;1.70;;;16.30;99.90;;;;;;5035365;28;20258;-75
2022/07/16 06:43:42;;;;;;;6.23;1.73;;;16.20;99.90;;;;;;5034434;28;20200;-75
2022/07/16 06:46:09;;;;;;;3.73;1.60;;;16.50;99.90;;;;;;5034099;28;20282;-75
2022/07/16 06:48:35;;;;;;;4.37;1.70;;;16.60;99.90;;;;;;5035611;28;20214;-76
2022/07/16 06:51:02;;;;;;;6.87;2.13;;;16.80;99.90;;;;;;5034098;28;20223;-77
2022/07/16 06:53:29;;;;;;;4.23;1.63;;;16.90;99.90;;;;;;5034178;28;20207;-75
2022/07/16 06:55:56;;;;;;;7.70;2.10;;;17.00;99.90;;;;;;5033713;28;20210;-76
2022/07/16 06:58:23;;;;;;;6.23;1.87;;;17.20;99.90;;;;;;5035204;28;20557;-76
2022/07/16 07:00:50;;;;;;;5.57;1.70;;;17.20;99.90;;;;;;5017570;28;20227;-76
2022/07/16 07:03:17;;;;;;;3.57;1.70;;;17.20;99.90;;;;;;5034806;28;20276;-75
2022/07/16 07:05:45;;;;;;;5.77;2.03;;;17.20;99.90;;;;;;5067088;28;20245;-76
2022/07/16 07:08:12;;;;;;;5.47;1.90;;;17.20;99.90;;;;;;5066835;28;20290;-75
2022/07/16 07:10:39;;;;;;;4.33;1.60;;;17.20;99.90;;;;;;5033525;28;20235;-75
2022/07/16 07:13:06;;;;;;;7.03;1.80;;;17.40;99.90;;;;;;5033448;28;20195;-76
2022/07/16 07:15:33;;;;;;;7.60;1.50;;;17.50;99.90;;;;;;5066894;28;20200;-77
2022/07/16 07:18:00;;;;;;;4.73;1.63;;;17.60;99.90;;;;;;5032929;28;20195;-75
2022/07/16 07:20:27;;;;;;;4.93;1.50;;;17.60;99.90;;;;;;5033277;28;20255;-76
2022/07/16 07:22:54;;;;;;;4.73;1.30;;;17.70;99.90;;;;;;5034494;28;20559;-76
2022/07/16 07:25:21;;;;;;;6.17;1.70;;;17.70;99.90;;;;;;5034342;28;20202;-76
2022/07/16 07:27:49;;;;;;;7.73;1.90;;;17.80;99.90;;;;;;5066627;28;20206;-76
2022/07/16 07:30:16;;;;;;;4.70;1.40;;;18.00;99.90;;;;;;5066214;28;20768;-76
2022/07/16 07:32:43;;;;;;;3.97;1.67;;;18.20;99.90;;;;;;5033098;28;20201;-76
2022/07/16 07:35:11;;;;;;;6.27;1.50;;;18.30;99.90;;;;;;5034688;28;20196;-77
2022/07/16 07:37:38;;;;;;;3.17;1.13;;;18.30;99.90;;;;;;5033249;28;20200;-75
2022/07/16 07:40:06;;;;;;;7.50;1.70;;;18.50;99.90;;;;;;5033024;28;20314;-77
2022/07/16 07:42:33;;;;;;;2.60;1.20;;;18.60;99.90;;;;;;5033230;28;20195;-77
2022/07/16 07:45:00;;;;;;;6.13;1.63;;;18.60;99.90;;;;;;5034209;28;20205;-76
2022/07/16 07:47:31;;;;;;;3.37;1.30;;;18.70;99.90;;;;;;5033191;28;20621;-76
2022/07/16 07:50:00;;;;;;;3.33;1.00;;;18.50;99.90;;;;;;5029605;28;20204;-76
2022/07/16 07:52:27;;;;;;;4.30;1.33;;;18.60;99.90;;;;;;5013125;28;20532;-77
2022/07/16 07:54:54;;;;;;;2.50;1.20;;;18.80;99.90;;;;;;5045908;28;20661;-76
2022/07/16 07:57:21;;;;;;;5.33;1.10;;;19.10;99.90;;;;;;5012832;28;20195;-76
2022/07/16 07:59:48;;;;;;;3.23;1.13;;;19.10;99.90;;;;;;5013064;28;20220;-79
2022/07/16 08:02:15;;;;;;;2.40;1.17;;;18.90;99.90;;;;;;5013139;28;20650;-78
2022/07/16 08:04:42;;;;;;;2.73;1.20;;;18.90;99.90;;;;;;5013332;28;20287;-77
2022/07/16 08:07:09;;;;;;;3.53;1.30;;;18.90;99.90;;;;;;5045864;28;20243;-79
2022/07/16 08:09:36;;;;;;;4.23;1.43;;;19.00;99.90;;;;;;5012861;28;20206;-79
2022/07/16 08:12:03;;;;;;;5.10;1.20;;;19.30;99.90;;;;;;5012956;28;20287;-80
2022/07/16 08:14:30;;;;;;;4.27;1.20;;;19.40;99.90;;;;;;5012654;28;20636;-78
2022/07/16 08:16:58;;;;;;;5.87;1.40;;;19.30;99.90;;;;;;5012781;28;20207;-78
2022/07/16 08:19:26;;;;;;;4.27;1.10;;;19.30;99.90;;;;;;5029172;28;20299;-77
2022/07/16 08:21:54;;;;;;;3.23;1.33;;;19.40;99.90;;;;;;5012576;28;20224;-76
2022/07/16 08:27:06;;;;;;;3.37;1.00;;;19.80;99.90;;;;;;5013755;28;20192;-78
2022/07/16 08:29:33;;;;;;;3.00;1.00;;;20.40;98.00;;;;;;5045365;28;20236;-84
2022/07/16 08:32:01;;;;;;;2.80;1.10;;;20.60;97.10;;;;;;5012269;28;20271;-80
2022/07/16 08:34:28;;;;;;;4.67;1.23;;;20.40;96.50;;;;;;5045782;28;20549;-80
2022/07/16 08:36:55;;;;;;;4.17;0.90;;;20.50;96.00;;;;;;5008847;28;20288;-79
2022/07/16 08:39:22;;;;;;;2.03;1.10;;;20.60;96.30;;;;;;4992537;28;20201;-78
2022/07/16 08:41:50;;;;;;;2.97;1.07;;;20.60;95.40;;;;;;4993837;28;20212;-75
2022/07/16 08:44:19;;;;;;;3.13;0.97;;;20.60;95.80;;;;;;5025534;28;20200;-76
2022/07/16 08:46:47;;;;;;;1.83;1.10;;;20.70;96.10;;;;;;4992661;28;20209;-75
2022/07/16 08:49:17;;;;;;;2.33;0.83;;;20.60;93.80;;;;;;4992614;28;20685;-77
2022/07/16 08:51:46;;;;;;;2.97;1.00;;;20.60;94.60;;;;;;4992873;28;20592;-78
2022/07/16 08:54:19;;;;;;;1.73;0.90;;;21.10;93.70;;;;;;5025802;28;20638;-78
2022/07/16 08:56:48;;;;;;;1.87;1.10;;;21.50;93.60;;;;;;4993791;28;20232;-77
2022/07/16 08:59:15;;;;;;;2.13;1.20;;;22.10;93.00;;;;;;4994974;28;20283;-77
2022/07/16 09:01:42;;;;;;;3.17;1.00;;;22.50;93.10;;;;;;5014658;28;20231;-76
2022/07/16 09:04:09;;;;;;;2.15;1.10;;;22.00;92.80;;;;;;5049561;28;20265;-74
2022/07/16 09:06:36;;;;;;;3.83;1.17;;;21.80;91.50;;;;;;5049645;28;20200;-73
2022/07/16 09:09:03;;;;;;;1.58;0.90;;;21.80;90.90;;;;;;5016680;28;20211;-74
2022/07/16 09:11:33;;;;;;;3.15;1.13;;;22.30;92.10;;;;;;4999418;28;20208;-72
2022/07/16 09:14:05;;;;;;;3.33;1.10;;;22.40;89.30;;;;;;5016208;28;20632;-74
2022/07/16 09:16:38;;;;;;;5.43;1.20;;;21.70;91.50;;;;;;5049729;28;20199;-71
2022/07/16 09:19:13;;;;;;;2.07;1.10;;;21.40;90.80;;;;;;5016897;28;20184;-71
2022/07/16 09:22:19;;;;;;;3.13;1.00;;;21.60;91.10;;;;;;5015739;28;20227;-71
2022/07/16 09:24:47;;;;;;;3.40;1.10;;;21.80;90.50;;;;;;4975922;28;20201;-72
2022/07/16 09:27:17;;;;;;;3.73;1.10;;;22.30;90.90;;;;;;4975825;28;20618;-72
2022/07/16 09:29:58;;;;;;;5.32;1.35;;;23.10;90.80;;;;;;4959928;28;20773;-73
2022/07/16 09:32:36;;;;;;;3.67;1.10;;;23.60;86.90;;;;;;4975640;28;20198;-72
2022/07/16 09:35:11;;;;;;;4.25;1.20;;;23.30;86.00;;;;;;4959803;28;20197;-73
2022/07/16 09:37:54;;;;;;;3.13;1.88;;;22.70;87.20;;;;;;4975411;28;20209;-73
2022/07/16 09:40:41;;;;;;;2.78;1.35;;;22.30;89.00;;;;;;4959187;28;20297;-73
2022/07/16 09:43:11;;;;;;;1.42;1.23;;;22.70;90.50;;;;;;4975582;28;20605;-73
2022/07/16 09:45:41;;;;;;;3.00;1.23;;;23.30;88.90;;;;;;4959590;28;20292;-73
2022/07/16 09:48:26;;;;;;;2.53;1.20;;;23.30;84.80;;;;;;4975329;28;20229;-73
2022/07/16 09:50:56;;;;;;;3.13;1.27;;;23.30;85.70;;;;;;4975582;28;20202;-74
2022/07/16 09:53:26;;;;;;;3.03;1.27;;;22.80;85.50;;;;;;4958971;28;20329;-73
2022/07/16 09:55:58;;;;;;;2.05;1.23;;;22.10;87.50;;;;;;4993607;28;20611;-73
2022/07/16 09:58:25;;;;;;;4.57;1.23;;;21.90;90.10;;;;;;5016635;28;20355;-72
2022/07/16 10:00:53;;;;;;;3.00;1.40;;;22.20;90.00;;;;;;5014824;28;20307;-72
2022/07/16 10:03:20;;;;;;;3.70;1.43;;;22.40;90.30;;;;;;5016387;28;20218;-73
2022/07/16 10:05:50;;;;;;;2.43;1.30;;;22.60;89.10;;;;;;5015115;28;20204;-73
2022/07/16 10:08:18;;;;;;;3.45;1.20;;;22.80;88.00;;;;;;5015208;28;20291;-73
2022/07/16 10:10:46;;;;;;;2.00;1.20;;;22.70;88.10;;;;;;5015295;28;20207;-72
2022/07/16 10:13:14;;;;;;;6.33;1.40;;;22.00;87.70;;;;;;5014931;28;20196;-73
2022/07/16 10:15:42;;;;;;;4.10;1.13;;;21.80;90.00;;;;;;5014777;28;20196;-73
2022/07/16 10:18:39;;;;;;;4.00;1.27;;;21.60;90.60;;;;;;5015511;28;20200;-73
2022/07/16 10:21:06;;;;;;;2.97;1.23;;;21.60;91.20;;;;;;5014873;28;20244;-73
2022/07/16 10:23:34;;;;;;;1.77;1.20;;;21.80;90.70;;;;;;5014991;28;20666;-71
2022/07/16 10:26:07;;;;;;;3.03;1.17;;;21.90;90.40;;;;;;5014508;28;20200;-71
2022/07/16 10:28:51;;;;;;;3.33;0.80;;;21.70;89.50;;;;;;5015867;28;20662;-71
2022/07/16 10:31:37;;;;;;;2.30;0.97;;;21.60;89.60;;;;;;5015888;28;20246;-73
2022/07/16 10:34:16;;;;;;;2.97;1.20;;;22.20;89.80;;;;;;5014751;28;20204;-72
2022/07/16 10:36:54;;;;;;;2.67;1.23;;;22.60;86.70;;;;;;5014622;28;20224;-73
2022/07/16 10:39:23;;;;;;;5.07;1.13;;;23.00;87.50;;;;;;5014961;28;20234;-73
2022/07/16 10:41:52;;;;;;;2.37;0.90;;;22.70;83.30;;;;;;5014376;28;20231;-74
2022/07/16 10:44:21;;;;;;;2.97;1.20;;;22.50;82.80;;;;;;5014491;28;20224;-73
2022/07/16 10:46:56;;;;;;;2.83;1.00;;;22.10;83.00;;;;;;5014857;28;20199;-73
2022/07/16 10:49:25;;;;;;;3.23;1.00;;;22.10;83.00;;;;;;5014554;28;20310;-73
2022/07/16 10:52:05;;;;;;;6.37;1.40;;;22.20;83.20;;;;;;5014615;28;20204;-72
2022/07/16 10:54:35;;;;;;;2.70;1.10;;;22.20;83.10;;;;;;5014176;28;20196;-72
2022/07/16 10:57:06;;;;;;;4.27;1.10;;;22.30;82.80;;;;;;5014510;28;20716;-71
2022/07/16 10:59:54;;;;;;;5.50;1.27;;;22.50;84.90;;;;;;5014676;28;20544;-72
2022/07/16 11:02:21;;;;;;;1.65;1.08;;;22.80;83.20;;;;;;5013874;28;20208;-73
2022/07/16 11:04:54;;;;;;;2.77;1.13;;;22.60;82.80;;;;;;5014516;28;20192;-73
2022/07/16 11:07:22;;;;;;;2.50;1.30;;;22.50;83.90;;;;;;5014094;28;20212;-73
2022/07/16 11:09:51;;;;;;;3.00;1.20;;;22.40;82.40;;;;;;5014361;28;20211;-73
2022/07/16 11:12:24;;;;;;;2.85;1.30;;;22.10;83.60;;;;;;5013296;28;20294;-73
2022/07/16 11:14:54;;;;;;;2.43;1.27;;;21.80;85.30;;;;;;5015079;28;20643;-73
2022/07/16 11:17:26;;;;;;;2.80;1.17;;;21.80;86.80;;;;;;5014034;28;20204;-73
2022/07/16 11:19:56;;;;;;;2.37;1.20;;;21.40;86.00;;;;;;5013826;28;20278;-72
2022/07/16 11:22:28;;;;;;;2.77;1.13;;;21.10;86.90;;;;;;5013754;28;20238;-73
2022/07/16 11:25:01;;;;;;;4.73;1.20;;;21.00;88.10;;;;;;5014271;28;20265;-73
2022/07/16 11:27:32;;;;;;;5.80;1.40;;;21.20;88.10;;;;;;5013612;28;20207;-73
2022/07/16 11:30:01;;;;;;;4.83;1.20;;;21.40;87.90;;;;;;5013430;28;20240;-73
2022/07/16 11:32:31;;;;;;;1.77;1.10;;;21.30;87.50;;;;;;5014862;28;20561;-73
2022/07/16 11:35:05;;;;;;;2.70;1.20;;;21.10;88.10;;;;;;5013635;28;20204;-72
2022/07/16 11:37:56;;;;;;;5.70;1.37;;;21.00;88.20;;;;;;5013108;28;20196;-72
2022/07/16 11:40:35;;;;;;;2.80;1.10;;;20.90;88.90;;;;;;5013645;28;20200;-73
2022/07/16 11:43:02;;;;;;;4.00;1.20;;;21.10;89.70;;;;;;5013275;28;20242;-74
2022/07/16 11:45:34;;;;;;;2.87;1.10;;;21.00;88.00;;;;;;5013163;28;20196;-72
2022/07/16 11:48:16;;;;;;;3.90;1.10;;;21.10;88.80;;;;;;5013019;28;20210;-73
2022/07/16 11:50:44;;;;;;;3.07;1.13;;;21.10;89.80;;;;;;5014544;28;20238;-72
2022/07/16 11:53:12;;;;;;;2.90;1.10;;;20.90;90.30;;;;;;5013107;28;20626;-73
2022/07/16 11:55:43;;;;;;;7.67;1.47;;;20.80;90.10;;;;;;5013166;28;20646;-73
2022/07/16 11:58:15;;;;;;;2.27;1.23;;;20.90;90.80;;;;;;5013156;28;20283;-72
2022/07/16 12:00:44;;;;;;;3.20;1.20;;;20.90;90.00;;;;;;5012893;28;20231;-73
2022/07/16 12:03:12;;;;;;;3.17;1.20;;;20.90;89.90;;;;;;5014327;28;20573;-73
2022/07/16 12:05:40;;;;;;;3.10;1.37;;;21.30;90.20;;;;;;5013355;28;20204;-72
2022/07/16 12:08:08;;;;;;;3.33;1.10;;;22.10;90.30;;;;;;5012780;28;20203;-73
2022/07/16 12:11:01;;;;;;;6.93;1.00;;;22.80;85.40;;;;;;5012583;28;20637;-73
2022/07/16 12:13:28;;;;;;;2.33;1.10;;;22.90;83.90;;;;;;5012434;28;20199;-73
2022/07/16 12:16:01;;;;;;;4.33;1.40;;;22.80;82.50;;;;;;5012846;28;20208;-74
2022/07/16 12:18:28;;;;;;;2.33;1.00;;;22.40;81.90;;;;;;5012921;28;20235;-74
2022/07/16 12:21:26;;;;;;;3.57;1.30;;;22.20;82.50;;;;;;5013795;28;20262;-74
2022/07/16 12:23:53;;;;;;;2.30;1.27;;;22.40;83.40;;;;;;5028815;28;20303;-75
2022/07/16 12:26:30;;;;;;;2.07;1.10;;;22.80;84.20;;;;;;5014069;28;20580;-73
2022/07/16 12:28:58;;;;;;;2.43;1.20;;;22.60;83.00;;;;;;5012331;28;20322;-73
2022/07/16 12:31:27;;;;;;;3.70;1.43;;;22.50;83.80;;;;;;5012731;28;20410;-72
2022/07/16 12:33:55;;;;;;;3.23;1.20;;;22.70;84.80;;;;;;5012417;28;20226;-79
2022/07/16 12:36:32;;;;;;;3.17;1.20;;;22.60;85.00;;;;;;5012729;28;20615;-78
2022/07/16 12:39:02;;;;;;;2.23;1.20;;;22.40;84.60;;;;;;5012605;28;20202;-75
2022/07/16 12:41:31;;;;;;;2.30;1.30;;;21.90;84.60;;;;;;5012180;28;20252;-75
2022/07/16 12:44:12;;;;;;;2.17;1.10;;;21.50;86.60;;;;;;5012188;28;20234;-75
2022/07/16 12:46:50;;;;;;;2.30;1.23;;;21.30;86.90;;;;;;5011948;28;20596;-76
2022/07/16 12:49:25;;;;;;;2.92;1.10;;;21.20;87.80;;;;;;5012211;28;20862;-76
2022/07/16 12:51:59;;;;;;;2.93;1.20;;;21.10;87.90;;;;;;5012352;28;20703;-76
2022/07/16 12:58:47;;;;;;;4.13;1.10;;;21.10;89.20;;;;;;5012051;28;20218;-75
2022/07/16 13:00:00;;;;;;;2.10;1.23;;;20.90;89.60;;;;;;5012341;28;20745;-75
2022/07/16 13:02:27;;;;;;;3.80;1.50;;;21.00;89.70;;;;;;5013175;28;20637;-74
2022/07/16 13:04:54;;;;;;;3.03;1.50;;;20.90;90.10;;;;;;5011808;28;20288;-78